Capron, Oklahoma
Current Conditions -  °F | °C
As of 5:55 PM on Monday 22 Dec 2014 (Local Time) from KAVK Reporting Station
Scattered Clouds Scattered Clouds  
Wind Chill:   Ceiling: Unl
Heat Index:   Visibility: 10mi
Dew Point:   Wind: 7mph
Humidity: 61%   Direction: 260°W
Pressure: 29.65"   Gusts: NA
Location:  36.8367°N, 98.8022°W
Report Text: KAVK 222355Z AUTO 26006KT 10SM FEW016 SCT021 07/00 A2965 RMK AO2
Loading
Personal Weather Stations






























Interactive Weather Map New forecast layout! Learn more

10-Day Weather Forecast

Advertisements
Track Severe Weather on mobile